Analomink, Pennsylvania
Current Conditions -  °F | °C
As of 2:53 PM on Friday 21 Nov 2014 (Local Time) from KMPO Reporting Station
Clear Clear  
Wind Chill: -9°   Ceiling: Unl
Heat Index: -3°   Visibility: 10mi
Dew Point: -15°   Wind: 13mph
Humidity: 41%   Direction: 300°WNW
Pressure: 30.26"   Gusts: 24mph
Location:  41.05°N, 75.22°W
Report Text: KMPO 211953Z AUTO 30011G21KT 10SM CLR M03/M15 A3026 RMK AO2 PK WND 30027/1902 SLP278 T10331150
Loading
Personal Weather Stations






























Interactive Weather Map New forecast layout! Learn more

10-Day Weather Forecast

Advertisements
Track Severe Weather on mobile